Time;durP1;ratioP1;P1;durP2;ratioP2;P2;SDS_P1;SDS_P2;PMS_P1;PMS_P2;Temp;Humidity;BMP_temperature;BMP_pressure;BME280_temperature;BME280_humidity;BME280_pressure;Samples;Min_cycle;Max_cycle;Signal;HPM_P1;HPM_P2
2022/07/19 00:01:08;;;;;;;1.43;0.90;;;23.20;80.50;;;;;;6088172;23;20437;-78
2022/07/19 00:03:36;;;;;;;1.47;0.90;;;23.20;80.40;;;;;;6127223;23;20734;-78
2022/07/19 00:06:04;;;;;;;1.43;0.90;;;23.10;80.90;;;;;;6088189;23;20568;-78
2022/07/19 00:08:31;;;;;;;1.47;0.90;;;23.10;80.50;;;;;;6117122;23;20458;-77
2022/07/19 00:10:58;;;;;;;1.50;0.90;;;23.00;80.80;;;;;;6093378;23;20422;-78
2022/07/19 00:13:28;;;;;;;1.47;0.90;;;23.00;80.30;;;;;;6119715;23;20429;-78
2022/07/19 00:15:55;;;;;;;1.47;0.90;;;23.00;81.40;;;;;;6087181;23;20490;-78
2022/07/19 00:18:22;;;;;;;1.47;0.90;;;22.90;81.30;;;;;;6131341;23;20447;-78
2022/07/19 00:20:51;;;;;;;1.43;0.90;;;22.80;81.40;;;;;;6085029;23;20414;-77
2022/07/19 00:23:19;;;;;;;1.50;1.00;;;22.80;81.80;;;;;;6132521;23;20427;-78
2022/07/19 00:25:46;;;;;;;1.43;0.90;;;22.80;82.10;;;;;;6094161;23;20510;-78
2022/07/19 00:28:13;;;;;;;1.47;0.90;;;22.70;81.80;;;;;;6121250;23;20794;-78
2022/07/19 00:30:40;;;;;;;1.50;0.90;;;22.70;82.40;;;;;;6097326;23;20485;-76
2022/07/19 00:33:08;;;;;;;1.47;0.90;;;22.60;81.90;;;;;;6103705;23;20769;-77
2022/07/19 00:35:35;;;;;;;1.50;0.90;;;22.60;81.60;;;;;;6096112;23;20934;-77
2022/07/19 00:38:06;;;;;;;1.47;0.90;;;22.60;81.60;;;;;;6103053;23;20481;-77
2022/07/19 00:40:34;;;;;;;1.50;0.80;;;22.60;82.20;;;;;;6095538;23;20463;-78
2022/07/19 00:43:01;;;;;;;1.40;0.90;;;22.50;81.90;;;;;;6102993;23;20782;-77
2022/07/19 00:45:28;;;;;;;1.50;0.90;;;22.50;81.90;;;;;;6094900;23;20906;-76
2022/07/19 00:47:55;;;;;;;1.43;0.90;;;22.50;81.70;;;;;;6103569;23;20457;-76
2022/07/19 00:50:23;;;;;;;1.47;0.90;;;22.50;81.70;;;;;;6096007;23;20864;-77
2022/07/19 00:52:51;;;;;;;1.50;0.90;;;22.40;82.20;;;;;;6104337;23;21373;-78
2022/07/19 00:55:21;;;;;;;2.17;1.50;;;22.40;82.00;;;;;;6099418;23;20436;-77
2022/07/19 00:57:48;;;;;;;1.50;0.90;;;22.40;82.40;;;;;;6104530;23;20453;-77
2022/07/19 01:00:17;;;;;;;1.43;0.90;;;22.30;82.10;;;;;;6097406;23;20423;-76
2022/07/19 01:02:45;;;;;;;1.47;0.90;;;22.30;82.50;;;;;;6100065;23;20514;-77
2022/07/19 01:05:13;;;;;;;1.50;0.90;;;22.30;82.50;;;;;;6095802;23;20490;-76
2022/07/19 01:07:41;;;;;;;1.50;0.90;;;22.20;82.90;;;;;;6104520;23;20458;-77
2022/07/19 01:10:11;;;;;;;1.47;0.90;;;22.20;82.70;;;;;;6096865;23;20447;-77
2022/07/19 01:12:40;;;;;;;1.40;0.90;;;22.20;83.10;;;;;;6103402;23;20449;-77
2022/07/19 01:15:15;;;;;;;1.50;0.90;;;22.10;83.30;;;;;;6095082;23;20450;-77
2022/07/19 01:17:42;;;;;;;1.40;0.90;;;22.10;83.00;;;;;;6104526;23;20861;-77
2022/07/19 01:20:10;;;;;;;1.47;1.00;;;22.10;83.40;;;;;;6096688;23;20419;-76
2022/07/19 01:22:40;;;;;;;1.50;0.90;;;22.10;83.30;;;;;;6101419;23;20449;-77
2022/07/19 01:25:07;;;;;;;1.50;0.90;;;22.00;82.80;;;;;;6094903;23;20501;-77
2022/07/19 01:27:40;;;;;;;1.47;0.90;;;22.00;83.50;;;;;;6102490;23;20472;-76
2022/07/19 01:30:13;;;;;;;6.20;5.53;;;22.00;83.80;;;;;;6096306;23;20777;-77
2022/07/19 01:32:40;;;;;;;1.47;0.87;;;21.90;83.20;;;;;;6102391;23;20478;-77
2022/07/19 01:35:09;;;;;;;3.30;2.03;;;21.90;83.40;;;;;;6088986;23;20429;-78
2022/07/19 01:37:36;;;;;;;1.47;0.90;;;21.90;83.90;;;;;;6096710;23;20465;-77
2022/07/19 01:40:06;;;;;;;1.40;0.90;;;21.90;83.50;;;;;;6108463;23;20914;-77
2022/07/19 01:42:33;;;;;;;1.47;0.90;;;21.90;83.70;;;;;;6099706;23;21037;-77
2022/07/19 01:45:00;;;;;;;1.47;0.90;;;21.80;83.80;;;;;;6097574;23;20418;-77
2022/07/19 01:47:27;;;;;;;1.43;0.90;;;21.80;83.60;;;;;;6100283;23;20548;-77
2022/07/19 01:49:54;;;;;;;1.50;0.90;;;21.80;83.70;;;;;;6099036;23;20466;-76
2022/07/19 01:52:24;;;;;;;1.47;0.90;;;21.80;84.30;;;;;;6099000;23;20512;-77
2022/07/19 01:54:51;;;;;;;1.50;0.90;;;21.70;83.90;;;;;;6096968;23;20894;-77
2022/07/19 01:57:21;;;;;;;1.50;0.90;;;21.70;84.60;;;;;;6098059;23;20505;-77
2022/07/19 01:59:47;;;;;;;1.43;0.90;;;21.70;84.80;;;;;;6099523;23;20454;-77
2022/07/19 02:02:15;;;;;;;1.43;0.90;;;21.70;84.20;;;;;;6094554;23;20894;-77
2022/07/19 02:04:42;;;;;;;1.43;0.87;;;21.60;84.70;;;;;;6099802;23;21082;-77
2022/07/19 02:07:09;;;;;;;1.40;0.90;;;21.60;85.00;;;;;;6096003;23;20453;-77
2022/07/19 02:09:35;;;;;;;1.47;0.90;;;21.60;85.60;;;;;;6112277;23;20446;-78
2022/07/19 02:12:03;;;;;;;1.40;0.90;;;21.60;84.90;;;;;;6094151;23;20472;-76
2022/07/19 02:14:31;;;;;;;1.47;0.90;;;21.60;84.80;;;;;;6103496;23;20489;-77
2022/07/19 02:16:58;;;;;;;1.47;0.90;;;21.60;84.50;;;;;;6093040;23;20899;-77
2022/07/19 02:19:25;;;;;;;1.50;0.90;;;21.60;84.10;;;;;;6104719;23;20422;-76
2022/07/19 02:21:52;;;;;;;1.43;0.90;;;21.60;84.10;;;;;;6094590;23;20513;-77
2022/07/19 02:24:21;;;;;;;1.40;0.90;;;21.60;84.30;;;;;;6093731;23;20917;-77
2022/07/19 02:26:48;;;;;;;1.47;0.90;;;21.60;83.80;;;;;;6091672;23;20552;-77
2022/07/19 02:29:15;;;;;;;1.47;0.90;;;21.60;84.10;;;;;;6106873;23;20473;-78
2022/07/19 02:31:44;;;;;;;1.47;0.90;;;21.60;84.00;;;;;;6090445;23;20456;-77
2022/07/19 02:34:11;;;;;;;1.43;0.90;;;21.60;84.50;;;;;;6110154;23;20619;-76
2022/07/19 02:36:38;;;;;;;1.43;0.90;;;21.50;84.70;;;;;;6091942;23;20470;-77
2022/07/19 02:39:05;;;;;;;1.43;0.90;;;21.50;84.40;;;;;;6108421;23;20419;-74
2022/07/19 02:41:32;;;;;;;1.47;0.90;;;21.50;85.10;;;;;;6093855;23;20449;-77
2022/07/19 02:44:00;;;;;;;1.50;0.90;;;21.40;85.10;;;;;;6110048;23;20415;-77
2022/07/19 02:46:29;;;;;;;1.70;1.50;;;21.40;84.80;;;;;;6089246;23;20456;-78
2022/07/19 02:48:57;;;;;;;1.43;0.90;;;21.40;85.00;;;;;;6110290;23;20917;-77
2022/07/19 02:51:24;;;;;;;1.47;0.90;;;21.30;85.40;;;;;;6090428;23;20469;-76
2022/07/19 02:53:51;;;;;;;1.50;0.90;;;21.30;85.00;;;;;;6110028;23;20922;-77
2022/07/19 02:56:20;;;;;;;1.40;0.90;;;21.30;85.20;;;;;;6087484;23;21019;-77
2022/07/19 02:58:47;;;;;;;1.50;0.90;;;21.20;85.10;;;;;;6112601;23;20454;-77
2022/07/19 03:01:14;;;;;;;1.47;0.90;;;21.20;84.90;;;;;;6086792;23;20496;-77
2022/07/19 03:03:47;;;;;;;1.43;0.90;;;21.20;85.70;;;;;;6111078;23;20462;-75
2022/07/19 03:06:18;;;;;;;1.47;0.90;;;21.20;85.10;;;;;;6094366;23;20452;-76
2022/07/19 03:08:46;;;;;;;1.40;0.90;;;21.10;85.80;;;;;;6113578;23;21012;-75
2022/07/19 03:11:13;;;;;;;1.50;0.90;;;21.10;85.70;;;;;;6085497;23;20727;-76
2022/07/19 03:13:40;;;;;;;1.43;0.90;;;21.10;85.50;;;;;;6112477;23;20422;-77
2022/07/19 03:16:08;;;;;;;1.47;0.87;;;21.10;86.20;;;;;;6086086;23;20878;-76
2022/07/19 03:18:35;;;;;;;1.43;0.90;;;21.00;85.80;;;;;;6114270;23;20446;-77
2022/07/19 03:21:02;;;;;;;1.47;0.93;;;21.00;85.50;;;;;;6082645;23;20505;-77
2022/07/19 03:23:58;;;;;;;;;;;;;;;;;;;;;
2022/07/19 03:26:25;;;;;;;1.43;0.90;;;20.90;85.60;;;;;;6099488;23;20876;-76
2022/07/19 03:28:52;;;;;;;1.43;0.90;;;20.90;85.50;;;;;;6110217;23;20426;-77
2022/07/19 03:31:19;;;;;;;1.50;0.90;;;20.90;85.70;;;;;;6085828;23;20469;-76
2022/07/19 03:33:46;;;;;;;1.47;0.90;;;20.90;85.00;;;;;;6111547;23;20427;-76
2022/07/19 03:36:14;;;;;;;1.47;0.90;;;20.90;85.00;;;;;;6084326;23;20449;-77
2022/07/19 03:38:42;;;;;;;1.43;0.90;;;20.90;85.50;;;;;;6121243;23;20454;-75
2022/07/19 03:41:09;;;;;;;1.43;0.90;;;20.90;85.50;;;;;;6083747;23;20768;-77
2022/07/19 03:43:38;;;;;;;1.40;0.90;;;20.90;85.20;;;;;;6113283;23;20422;-76
2022/07/19 03:46:06;;;;;;;1.43;0.90;;;20.90;85.00;;;;;;6083112;23;22586;-77
2022/07/19 03:48:33;;;;;;;1.47;0.90;;;20.90;84.80;;;;;;6113935;23;20451;-77
2022/07/19 03:51:00;;;;;;;1.47;0.90;;;20.90;84.80;;;;;;6080294;23;21053;-76
2022/07/19 03:53:27;;;;;;;1.43;0.90;;;20.90;85.40;;;;;;6113861;23;20785;-77
2022/07/19 03:55:56;;;;;;;1.47;0.87;;;20.90;84.80;;;;;;6080765;23;20433;-76
2022/07/19 03:58:23;;;;;;;1.40;0.90;;;20.90;85.50;;;;;;6115388;23;20556;-76
2022/07/19 04:00:50;;;;;;;1.43;0.90;;;20.90;85.70;;;;;;6090442;23;20434;-77
2022/07/19 04:03:18;;;;;;;1.40;0.90;;;20.90;85.90;;;;;;6114463;23;20423;-76
2022/07/19 04:05:45;;;;;;;1.47;0.90;;;20.90;85.60;;;;;;6094551;23;20429;-78
2022/07/19 04:08:12;;;;;;;1.47;1.00;;;20.80;85.20;;;;;;6077623;23;20784;-77
2022/07/19 04:10:40;;;;;;;1.40;0.90;;;20.90;84.70;;;;;;6093756;23;20526;-78
2022/07/19 04:13:09;;;;;;;1.50;0.90;;;20.90;85.00;;;;;;6104332;23;20458;-77
2022/07/19 04:15:36;;;;;;;1.47;0.90;;;20.90;84.70;;;;;;6096462;23;20914;-77
2022/07/19 04:18:03;;;;;;;1.47;0.90;;;20.90;85.30;;;;;;6103995;23;20819;-76
2022/07/19 04:20:34;;;;;;;1.43;0.90;;;20.90;85.50;;;;;;6096638;23;20426;-76
2022/07/19 04:23:01;;;;;;;1.47;0.90;;;20.90;85.20;;;;;;6105654;23;20817;-78
2022/07/19 04:25:28;;;;;;;1.40;0.90;;;21.00;84.80;;;;;;6107630;23;20446;-76
2022/07/19 04:27:56;;;;;;;1.47;0.90;;;21.00;84.80;;;;;;6102904;23;20453;-75
2022/07/19 04:30:24;;;;;;;1.40;0.90;;;21.00;84.80;;;;;;6093226;23;20529;-77
2022/07/19 04:32:52;;;;;;;1.47;0.90;;;21.10;84.50;;;;;;6100674;23;20512;-77
2022/07/19 04:35:19;;;;;;;1.43;0.90;;;21.10;84.80;;;;;;6095394;23;20426;-77
2022/07/19 04:37:46;;;;;;;1.47;0.90;;;21.10;84.20;;;;;;6101031;23;20453;-77
2022/07/19 04:40:13;;;;;;;1.43;0.90;;;21.20;83.80;;;;;;6096210;23;20423;-77
2022/07/19 04:42:41;;;;;;;1.47;0.93;;;21.30;83.90;;;;;;6104056;23;20454;-75
2022/07/19 04:45:09;;;;;;;1.47;0.90;;;21.30;84.30;;;;;;6097429;23;20423;-77
2022/07/19 04:47:37;;;;;;;1.50;0.90;;;21.30;84.00;;;;;;6102548;23;20484;-76
2022/07/19 04:53:27;;;;;;;1.47;0.90;;;21.50;83.50;;;;;;6076760;23;20980;-76
2022/07/19 04:55:54;;;;;;;1.40;0.90;;;21.50;82.80;;;;;;6082783;23;20422;-78
2022/07/19 04:58:22;;;;;;;1.50;1.00;;;21.60;82.10;;;;;;6118469;23;20509;-77
2022/07/19 05:00:49;;;;;;;1.47;0.90;;;21.70;81.90;;;;;;6093304;23;20474;-76
2022/07/19 05:03:18;;;;;;;1.43;0.90;;;21.90;81.80;;;;;;6112400;23;20482;-76
2022/07/19 05:05:45;;;;;;;1.47;0.90;;;22.00;81.10;;;;;;6102460;23;20443;-76
2022/07/19 05:08:12;;;;;;;1.43;0.90;;;22.20;80.70;;;;;;6078269;23;20439;-76
2022/07/19 05:10:39;;;;;;;1.47;0.90;;;22.40;79.90;;;;;;6102419;23;20502;-77
2022/07/19 05:13:06;;;;;;;1.47;0.90;;;22.50;79.10;;;;;;6101894;23;20445;-76
2022/07/19 05:15:33;;;;;;;1.50;0.90;;;22.60;79.00;;;;;;6094061;23;20932;-76
2022/07/19 05:18:01;;;;;;;1.47;0.90;;;22.80;78.40;;;;;;6097351;23;20480;-77
2022/07/19 05:20:30;;;;;;;1.50;0.90;;;22.90;77.90;;;;;;6099036;23;20451;-75
2022/07/19 05:22:57;;;;;;;1.47;0.90;;;23.00;77.10;;;;;;6100961;23;20518;-76
2022/07/19 05:25:25;;;;;;;1.47;0.90;;;23.10;77.10;;;;;;6102267;23;20477;-76
2022/07/19 05:27:55;;;;;;;1.47;0.90;;;23.20;76.80;;;;;;6102389;23;20952;-78
2022/07/19 05:30:23;;;;;;;1.47;0.90;;;23.30;76.50;;;;;;6094049;23;20413;-78
2022/07/19 05:32:50;;;;;;;1.43;0.90;;;23.50;76.20;;;;;;6101915;23;20453;-76
2022/07/19 05:35:18;;;;;;;1.43;0.90;;;23.70;75.70;;;;;;6092719;23;20430;-76
2022/07/19 05:37:47;;;;;;;1.40;0.80;;;23.80;75.50;;;;;;6100745;23;20515;-76
2022/07/19 05:40:15;;;;;;;1.47;0.90;;;23.90;75.50;;;;;;6093736;23;20486;-77
2022/07/19 05:42:42;;;;;;;1.40;0.90;;;24.00;75.20;;;;;;6107134;23;20453;-77
2022/07/19 05:45:11;;;;;;;1.50;0.83;;;24.10;74.20;;;;;;6094838;23;20423;-77
2022/07/19 05:47:38;;;;;;;1.40;0.90;;;24.20;73.60;;;;;;6100369;23;20857;-77
2022/07/19 05:50:06;;;;;;;1.50;0.90;;;24.40;73.50;;;;;;6094245;23;20433;-77
2022/07/19 05:52:33;;;;;;;1.50;0.90;;;24.50;72.60;;;;;;6096160;23;20449;-76
2022/07/19 05:55:01;;;;;;;1.47;0.90;;;24.50;73.00;;;;;;6093243;23;20461;-75
2022/07/19 05:57:28;;;;;;;1.50;1.00;;;24.60;72.10;;;;;;6097532;23;20508;-76
2022/07/19 05:59:55;;;;;;;1.47;0.83;;;24.70;72.50;;;;;;6098176;23;20434;-78
2022/07/19 06:02:23;;;;;;;1.47;0.80;;;24.80;72.30;;;;;;6098977;23;20453;-77
2022/07/19 06:04:52;;;;;;;1.43;0.80;;;24.80;72.20;;;;;;6095561;23;20418;-76
2022/07/19 06:07:19;;;;;;;1.63;1.30;;;25.10;71.50;;;;;;6095762;23;20974;-77
2022/07/19 06:09:46;;;;;;;1.50;1.00;;;25.30;70.80;;;;;;6098349;23;20569;-76
2022/07/19 06:12:15;;;;;;;1.47;0.90;;;25.50;70.10;;;;;;6093299;23;20453;-76
2022/07/19 06:14:42;;;;;;;1.50;1.00;;;25.60;69.90;;;;;;6098000;23;20431;-76
2022/07/19 06:17:09;;;;;;;1.50;1.10;;;25.80;69.20;;;;;;6097489;23;20461;-76
2022/07/19 06:19:37;;;;;;;1.50;1.00;;;26.00;69.30;;;;;;6099361;23;20423;-77
2022/07/19 06:22:04;;;;;;;1.47;0.90;;;26.30;68.40;;;;;;6093956;23;20453;-76
2022/07/19 06:24:31;;;;;;;1.47;0.90;;;26.60;67.60;;;;;;6100310;23;20454;-76
2022/07/19 06:26:58;;;;;;;1.43;0.80;;;26.80;66.00;;;;;;6092008;23;20464;-77
2022/07/19 06:29:27;;;;;;;1.47;0.90;;;27.10;65.40;;;;;;6102563;23;20434;-76
2022/07/19 06:31:54;;;;;;;1.50;0.90;;;27.30;64.10;;;;;;6089834;23;20543;-77
2022/07/19 06:34:21;;;;;;;1.50;0.83;;;27.40;64.40;;;;;;6102194;23;20422;-77
2022/07/19 06:36:48;;;;;;;1.47;0.83;;;27.60;63.90;;;;;;6090522;23;20561;-77
2022/07/19 06:39:16;;;;;;;1.47;0.80;;;27.70;63.30;;;;;;6103528;23;20817;-77
2022/07/19 06:41:43;;;;;;;1.50;0.80;;;27.90;62.80;;;;;;6088611;23;20465;-75
2022/07/19 06:44:10;;;;;;;1.50;0.90;;;28.10;62.50;;;;;;6104298;23;20808;-76
2022/07/19 06:46:38;;;;;;;1.50;0.80;;;28.20;61.90;;;;;;6088353;23;20449;-77
2022/07/19 06:49:06;;;;;;;1.47;0.80;;;28.40;61.90;;;;;;6104297;23;20437;-77
2022/07/19 06:51:32;;;;;;;1.50;0.87;;;28.50;61.70;;;;;;6088049;23;20536;-76
2022/07/19 06:53:59;;;;;;;1.50;0.90;;;28.70;61.20;;;;;;6106317;23;21390;-75
2022/07/19 06:56:27;;;;;;;1.47;0.80;;;28.90;60.50;;;;;;6084962;23;20536;-75
2022/07/19 06:58:54;;;;;;;1.47;0.80;;;29.10;60.90;;;;;;6107602;23;20960;-75
2022/07/19 07:01:21;;;;;;;1.43;0.80;;;29.20;60.00;;;;;;6084268;23;20473;-76
2022/07/19 07:03:49;;;;;;;1.47;0.80;;;29.30;59.60;;;;;;6107784;23;20422;-76
2022/07/19 07:06:16;;;;;;;1.43;0.80;;;29.30;59.10;;;;;;6083878;23;20453;-76
2022/07/19 07:08:45;;;;;;;1.50;0.90;;;29.40;60.60;;;;;;6108328;23;20446;-76
2022/07/19 07:11:12;;;;;;;1.43;0.83;;;29.60;59.30;;;;;;6081901;23;20484;-76
2022/07/19 07:13:39;;;;;;;1.40;0.80;;;29.80;58.80;;;;;;6120659;23;20500;-77
2022/07/19 07:16:07;;;;;;;1.50;1.00;;;30.00;58.60;;;;;;6082529;23;20437;-76
2022/07/19 07:18:35;;;;;;;1.47;0.90;;;30.10;58.40;;;;;;6111038;23;20509;-77
2022/07/19 07:21:33;;;;;;;1.40;0.80;;;30.10;58.40;;;;;;6082472;23;20442;-77
2022/07/19 07:24:00;;;;;;;1.47;0.80;;;30.30;57.20;;;;;;6122596;23;20426;-76
2022/07/19 07:26:27;;;;;;;2.03;1.27;;;30.40;57.60;;;;;;6085035;23;20959;-77
2022/07/19 07:28:54;;;;;;;1.40;0.90;;;30.60;57.40;;;;;;6107446;23;20945;-77
2022/07/19 07:31:21;;;;;;;1.40;0.80;;;30.80;57.20;;;;;;6085416;23;20535;-77
2022/07/19 07:33:49;;;;;;;1.40;0.80;;;31.00;56.20;;;;;;6110414;23;20438;-76
2022/07/19 07:36:18;;;;;;;1.43;0.90;;;31.20;56.80;;;;;;6084908;23;20778;-75
2022/07/19 07:38:45;;;;;;;1.40;0.80;;;31.20;56.10;;;;;;6110829;23;20442;-75
2022/07/19 07:41:12;;;;;;;1.47;0.80;;;31.10;56.80;;;;;;6084139;23;20445;-76
2022/07/19 07:43:39;;;;;;;1.43;0.90;;;31.30;56.30;;;;;;6122127;23;20418;-75
2022/07/19 07:46:06;;;;;;;1.43;0.80;;;31.40;56.30;;;;;;6092603;23;20429;-77
2022/07/19 07:48:34;;;;;;;1.50;0.80;;;31.60;56.20;;;;;;6110531;23;20481;-77
2022/07/19 07:51:01;;;;;;;1.47;0.80;;;31.60;55.50;;;;;;6080321;23;20418;-76
2022/07/19 07:53:30;;;;;;;1.43;0.80;;;31.70;55.90;;;;;;6112424;23;20423;-76
2022/07/19 07:55:57;;;;;;;1.43;0.80;;;31.80;55.20;;;;;;6080499;23;20464;-77
2022/07/19 07:58:25;;;;;;;1.40;0.80;;;31.90;54.80;;;;;;6115954;23;20496;-76
2022/07/19 08:00:52;;;;;;;1.43;0.90;;;32.00;55.20;;;;;;6080185;23;20445;-76
2022/07/19 08:03:19;;;;;;;1.43;0.87;;;32.10;55.30;;;;;;6123212;23;20422;-76
2022/07/19 08:05:48;;;;;;;1.40;0.87;;;32.30;54.70;;;;;;6086965;23;20422;-77
2022/07/19 08:08:15;;;;;;;1.43;0.80;;;32.30;54.50;;;;;;6116412;23;20450;-77
2022/07/19 08:10:44;;;;;;;1.40;0.80;;;32.40;54.80;;;;;;6094893;23;20441;-77
2022/07/19 08:13:11;;;;;;;1.50;0.80;;;32.50;54.00;;;;;;6101783;23;20678;-76
2022/07/19 08:15:39;;;;;;;1.40;0.80;;;32.60;54.30;;;;;;6092783;23;20453;-76
2022/07/19 08:18:06;;;;;;;1.40;0.80;;;32.60;54.30;;;;;;6102476;23;20237;-75
2022/07/19 08:20:35;;;;;;;1.43;0.90;;;32.80;54.00;;;;;;6094338;23;20422;-77
2022/07/19 08:23:03;;;;;;;1.47;0.80;;;32.90;54.20;;;;;;6106716;23;20220;-77
2022/07/19 08:25:32;;;;;;;1.43;0.80;;;33.20;53.60;;;;;;6092393;23;20186;-76
2022/07/19 08:28:03;;;;;;;1.43;0.80;;;33.40;53.50;;;;;;6101894;23;20214;-76
2022/07/19 08:30:30;;;;;;;1.43;0.80;;;33.70;52.60;;;;;;6095756;23;20186;-76
2022/07/19 08:32:58;;;;;;;1.50;0.80;;;33.80;52.30;;;;;;6102179;23;20688;-77
2022/07/19 08:35:25;;;;;;;1.43;0.80;;;33.70;52.60;;;;;;6092506;23;20299;-77
2022/07/19 08:37:52;;;;;;;1.43;0.80;;;33.70;52.30;;;;;;6100423;23;20538;-76
2022/07/19 08:40:19;;;;;;;1.43;0.80;;;33.60;52.40;;;;;;6092571;23;20217;-77
2022/07/19 08:42:48;;;;;;;1.47;0.80;;;33.70;52.50;;;;;;6099133;23;20776;-77
2022/07/19 08:45:16;;;;;;;1.50;1.20;;;33.80;52.50;;;;;;6092707;23;20209;-78
2022/07/19 08:47:44;;;;;;;1.40;0.90;;;33.90;52.00;;;;;;6099266;23;20217;-77
2022/07/19 08:50:14;;;;;;;1.40;0.80;;;34.00;52.30;;;;;;6096816;23;20170;-77
2022/07/19 08:52:42;;;;;;;1.50;0.90;;;34.10;52.20;;;;;;6104539;23;20213;-77
2022/07/19 08:55:11;;;;;;;1.40;0.80;;;34.40;51.70;;;;;;6102383;23;20178;-76
2022/07/19 09:00:24;;;;;;;1.40;0.80;;;34.50;50.90;;;;;;6093380;23;20589;-78
2022/07/19 09:02:58;;;;;;;1.40;0.80;;;34.70;51.50;;;;;;6101908;23;20237;-77
2022/07/19 09:05:26;;;;;;;1.40;0.80;;;34.90;50.30;;;;;;6094612;23;20173;-76
2022/07/19 09:08:06;;;;;;;1.40;0.80;;;35.00;50.40;;;;;;6103238;23;20209;-78
2022/07/19 09:10:34;;;;;;;1.40;0.80;;;35.10;50.10;;;;;;6103898;23;20409;-77
2022/07/19 09:13:06;;;;;;;1.40;0.80;;;35.30;49.90;;;;;;6102170;23;20708;-77
2022/07/19 09:15:40;;;;;;;1.60;1.15;;;35.30;49.70;;;;;;6094545;23;20637;-77
2022/07/19 09:18:09;;;;;;;1.42;0.80;;;35.60;49.30;;;;;;6102985;23;20218;-77
2022/07/19 09:20:36;;;;;;;1.40;0.80;;;35.90;49.30;;;;;;6095653;23;20182;-78
2022/07/19 09:23:04;;;;;;;1.45;0.80;;;36.10;48.90;;;;;;6099604;23;20320;-77
2022/07/19 09:25:36;;;;;;;1.40;0.80;;;36.20;48.20;;;;;;6092309;23;20178;-77
2022/07/19 09:28:05;;;;;;;1.40;0.80;;;36.10;48.40;;;;;;6103914;23;20213;-76
2022/07/19 09:30:41;;;;;;;1.40;0.80;;;36.30;48.80;;;;;;6092952;23;20248;-77
2022/07/19 09:33:14;;;;;;;1.40;0.95;;;36.40;47.80;;;;;;6100990;23;20224;-77
2022/07/19 09:35:43;;;;;;;1.40;0.80;;;36.40;48.10;;;;;;6092396;23;20170;-76
2022/07/19 09:38:25;;;;;;;1.40;0.80;;;36.40;47.60;;;;;;6103343;23;20275;-78
2022/07/19 09:40:55;;;;;;;1.50;1.00;;;36.30;47.30;;;;;;6081423;23;20245;-77
2022/07/19 09:43:25;;;;;;;1.40;0.80;;;36.50;47.20;;;;;;6115339;23;20182;-76
2022/07/19 09:45:54;;;;;;;1.40;0.80;;;36.50;47.10;;;;;;6080602;23;20182;-79
2022/07/19 09:48:21;;;;;;;1.40;0.80;;;36.50;47.20;;;;;;6117270;23;20301;-77
2022/07/19 09:50:49;;;;;;;1.40;0.80;;;36.50;46.80;;;;;;6082200;23;20182;-77
2022/07/19 09:53:17;;;;;;;1.40;0.90;;;36.70;47.10;;;;;;6115382;23;20711;-77
2022/07/19 09:55:45;;;;;;;1.40;0.80;;;36.90;46.30;;;;;;6094697;23;20266;-76
2022/07/19 09:58:13;;;;;;;1.40;0.80;;;37.20;45.60;;;;;;6079668;23;20539;-77
2022/07/19 10:00:40;;;;;;;2.97;2.50;;;37.40;45.60;;;;;;6095789;23;20720;-78
2022/07/19 10:03:11;;;;;;;1.40;0.80;;;37.50;45.40;;;;;;6106171;23;20210;-77
2022/07/19 10:05:40;;;;;;;1.40;0.80;;;37.60;46.10;;;;;;6093814;23;20167;-77
2022/07/19 10:08:07;;;;;;;1.70;1.27;;;37.80;45.10;;;;;;6104243;23;20281;-78
2022/07/19 10:10:34;;;;;;;1.40;0.93;;;37.70;44.20;;;;;;6094885;23;20182;-78
2022/07/19 10:13:03;;;;;;;1.40;0.90;;;37.90;44.20;;;;;;6102246;23;20268;-76
2022/07/19 10:15:37;;;;;;;1.38;0.80;;;38.00;44.00;;;;;;6092950;23;20230;-78
2022/07/19 10:18:12;;;;;;;1.38;0.80;;;38.10;43.40;;;;;;6101467;23;20589;-77
2022/07/19 10:20:48;;;;;;;1.38;0.80;;;38.20;43.20;;;;;;6097389;23;20181;-78
2022/07/19 10:23:15;;;;;;;1.35;0.80;;;38.40;43.10;;;;;;6087740;23;20198;-78
2022/07/19 10:25:47;;;;;;;1.40;0.80;;;38.50;42.90;;;;;;6096029;23;20188;-78
2022/07/19 10:28:38;;;;;;;1.40;0.80;;;38.70;43.10;;;;;;6081454;23;20206;-77
2022/07/19 10:31:28;;;;;;;1.38;0.80;;;38.90;42.10;;;;;;6055654;23;20329;-78
2022/07/19 10:34:04;;;;;;;1.40;1.00;;;38.90;42.60;;;;;;6111209;23;20170;-78
2022/07/19 10:36:37;;;;;;;1.38;0.80;;;39.00;42.90;;;;;;6087345;23;20205;-78
2022/07/19 10:39:26;;;;;;;1.40;0.80;;;38.90;42.40;;;;;;6117182;23;20159;-77
2022/07/19 10:42:23;;;;;;;1.38;0.88;;;38.90;42.10;;;;;;6095167;23;20279;-76
2022/07/19 10:45:11;;;;;;;1.40;0.90;;;39.10;41.60;;;;;;6056831;23;20202;-77
2022/07/19 10:48:10;;;;;;;1.38;0.80;;;39.00;41.00;;;;;;6097437;23;20308;-77
2022/07/19 10:50:57;;;;;;;1.35;0.80;;;39.00;42.10;;;;;;6091923;23;20176;-77
2022/07/19 10:53:59;;;;;;;3.58;3.28;;;38.90;42.10;;;;;;6075469;23;20265;-77
2022/07/19 10:56:30;;;;;;;1.40;0.80;;;38.90;41.60;;;;;;6050366;23;20300;-77
2022/07/19 10:58:59;;;;;;;1.40;0.80;;;38.90;41.10;;;;;;6106204;23;20178;-77
2022/07/19 11:01:28;;;;;;;2.50;1.20;;;38.80;42.80;;;;;;6086137;23;20264;-78
2022/07/19 11:04:16;;;;;;;1.40;0.80;;;38.90;41.10;;;;;;6108625;23;20343;-77
2022/07/19 11:06:44;;;;;;;1.40;0.80;;;39.00;41.50;;;;;;6093698;23;20213;-78
2022/07/19 11:09:11;;;;;;;1.40;0.80;;;39.20;40.60;;;;;;6106590;23;20184;-78
2022/07/19 11:11:39;;;;;;;1.40;0.80;;;39.40;41.60;;;;;;6094035;23;20209;-78
2022/07/19 11:14:06;;;;;;;1.35;0.80;;;39.80;40.60;;;;;;6108648;23;20564;-77
2022/07/19 11:16:33;;;;;;;1.38;0.80;;;39.80;39.90;;;;;;6097238;23;20193;-78
2022/07/19 11:19:04;;;;;;;1.38;0.80;;;39.80;40.60;;;;;;6098753;23;20517;-80
2022/07/19 11:21:34;;;;;;;1.40;0.80;;;39.90;39.10;;;;;;6093824;23;20206;-78
2022/07/19 11:24:03;;;;;;;1.38;0.80;;;39.80;39.40;;;;;;6109303;23;20183;-78
2022/07/19 11:26:37;;;;;;;1.40;0.88;;;39.60;39.40;;;;;;6088906;23;20584;-76
2022/07/19 11:29:04;;;;;;;1.40;0.80;;;39.70;39.40;;;;;;6111047;23;20186;-78
2022/07/19 11:31:32;;;;;;;1.40;0.80;;;39.80;39.60;;;;;;6092809;23;20461;-77
2022/07/19 11:34:00;;;;;;;1.38;0.80;;;39.50;39.30;;;;;;6107225;23;20189;-78
2022/07/19 11:36:28;;;;;;;1.38;0.80;;;39.70;39.80;;;;;;6091021;23;20688;-79
2022/07/19 11:38:58;;;;;;;1.35;0.80;;;39.70;39.80;;;;;;6120567;23;20376;-79
2022/07/19 11:41:29;;;;;;;1.50;1.20;;;39.80;40.20;;;;;;6088710;23;20205;-77
2022/07/19 11:43:58;;;;;;;1.38;0.80;;;39.80;38.70;;;;;;6108636;23;20170;-78
2022/07/19 11:46:26;;;;;;;1.40;0.80;;;39.60;39.70;;;;;;6091497;23;20209;-79
2022/07/19 11:48:57;;;;;;;1.35;0.80;;;39.70;39.70;;;;;;6122122;23;20182;-80
2022/07/19 11:51:25;;;;;;;1.38;0.80;;;39.70;39.70;;;;;;6096147;23;20240;-78
2022/07/19 11:53:54;;;;;;;1.38;0.80;;;39.70;39.40;;;;;;6112616;23;20217;-78
2022/07/19 11:56:24;;;;;;;1.35;0.85;;;39.80;38.10;;;;;;6088648;23;20216;-77
2022/07/19 11:58:54;;;;;;;1.35;0.80;;;39.80;38.30;;;;;;6123097;23;20178;-79
2022/07/19 12:01:31;;;;;;;1.40;0.80;;;39.90;38.50;;;;;;6088957;23;20213;-78
2022/07/19 12:04:03;;;;;;;1.40;0.80;;;39.90;38.10;;;;;;6122035;23;20205;-77
2022/07/19 12:06:48;;;;;;;1.40;0.80;;;40.00;38.60;;;;;;6091581;23;20236;-78
2022/07/19 12:09:16;;;;;;;2.15;1.95;;;40.20;35.50;;;;;;6110362;23;20190;-78
2022/07/19 12:11:45;;;;;;;1.40;0.90;;;40.40;36.80;;;;;;6092378;23;20704;-78
2022/07/19 12:14:23;;;;;;;1.40;0.80;;;40.50;37.90;;;;;;6105610;23;20193;-79
2022/07/19 12:16:52;;;;;;;1.40;0.80;;;40.60;37.40;;;;;;6088859;23;20212;-79
2022/07/19 12:19:31;;;;;;;1.35;0.80;;;40.60;38.20;;;;;;6117468;23;20202;-79
2022/07/19 12:22:01;;;;;;;1.35;0.80;;;40.60;36.90;;;;;;6097290;23;20209;-78
2022/07/19 12:24:32;;;;;;;1.38;0.80;;;40.50;36.70;;;;;;6106656;23;20354;-78
2022/07/19 12:27:02;;;;;;;1.33;0.80;;;40.40;38.00;;;;;;6095685;23;20269;-79
2022/07/19 12:29:47;;;;;;;1.35;0.80;;;40.60;37.80;;;;;;6108243;23;20198;-79
2022/07/19 12:32:27;;;;;;;1.35;0.80;;;40.80;37.60;;;;;;6106537;23;20284;-80
2022/07/19 12:34:59;;;;;;;1.35;0.80;;;40.70;37.50;;;;;;6109349;23;20209;-78
2022/07/19 12:37:34;;;;;;;1.38;0.80;;;40.70;37.10;;;;;;6107585;23;20209;-79
2022/07/19 12:40:07;;;;;;;1.38;0.80;;;40.70;37.20;;;;;;6099691;23;20184;-77
2022/07/19 12:42:40;;;;;;;1.33;0.80;;;40.60;37.10;;;;;;6105081;23;20233;-77
2022/07/19 12:45:19;;;;;;;1.38;0.80;;;40.60;37.20;;;;;;6109945;23;20173;-80
2022/07/19 12:47:48;;;;;;;1.40;0.90;;;40.60;37.40;;;;;;6107853;23;20277;-78
2022/07/19 12:50:26;;;;;;;1.40;0.90;;;40.80;38.50;;;;;;6099213;23;20634;-79
2022/07/19 12:53:13;;;;;;;1.35;0.80;;;40.90;38.20;;;;;;6107049;23;20264;-79
2022/07/19 12:55:50;;;;;;;1.35;0.80;;;41.20;39.20;;;;;;6107297;23;20182;-79
2022/07/19 13:01:08;;;;;;;1.38;0.80;;;40.60;37.20;;;;;;6089524;23;20206;-78
2022/07/19 13:03:39;;;;;;;1.60;1.00;;;40.70;37.40;;;;;;6119542;23;20238;-80
2022/07/19 13:06:11;;;;;;;1.33;0.80;;;40.90;36.90;;;;;;6087899;23;22028;-78
2022/07/19 13:08:39;;;;;;;1.50;1.13;;;40.70;37.00;;;;;;6129458;23;20205;-80